Time;durP1;ratioP1;P1;durP2;ratioP2;P2;SDS_P1;SDS_P2;PMS_P1;PMS_P2;Temp;Humidity;BMP_temperature;BMP_pressure;BME280_temperature;BME280_humidity;BME280_pressure;Samples;Min_cycle;Max_cycle;Signal;HPM_P1;HPM_P2
2023/01/29 00:01:02;;;;;;;14.50;9.07;;;;;;;;;;4973957;28;20437;-72
2023/01/29 00:03:28;;;;;;;17.08;9.50;;;;;;;;;;4973703;28;20563;-72
2023/01/29 00:05:54;;;;;;;14.00;8.88;;;;;;;;;;4973912;28;20113;-71
2023/01/29 00:08:20;;;;;;;13.30;9.07;;;;;;;;;;4988373;28;20113;-72
2023/01/29 00:10:46;;;;;;;14.05;8.77;;;;;;;;;;4973758;28;20042;-72
2023/01/29 00:13:12;;;;;;;11.80;8.02;;;;;;;;;;4973785;28;20038;-72
2023/01/29 00:15:38;;;;;;;16.65;9.85;;;;;;;;;;4988567;28;20037;-72
2023/01/29 00:18:04;;;;;;;21.08;9.85;;;;;;;;;;4973367;28;20469;-72
2023/01/29 00:20:31;;;;;;;15.65;9.57;;;;;;;;;;4973938;28;20026;-72
2023/01/29 00:22:57;;;;;;;19.17;10.85;;;;;;;;;;4973616;28;20397;-71
2023/01/29 00:25:23;;;;;;;15.73;9.45;;;;;;;;;;4973365;28;20581;-71
2023/01/29 00:27:49;;;;;;;14.52;8.57;;;;;;;;;;4974424;28;20527;-71
2023/01/29 00:30:17;;;;;;;15.52;9.45;;;;;;;;;;4973613;28;20576;-71
2023/01/29 00:32:44;;;;;;;15.50;9.25;;;;;;;;;;4973684;28;20027;-71
2023/01/29 00:35:10;;;;;;;15.43;9.77;;;;;;;;;;4973201;28;20022;-72
2023/01/29 00:37:36;;;;;;;16.73;10.57;;;;;;;;;;4972857;28;20026;-72
2023/01/29 00:40:03;;;;;;;18.40;9.05;;;;;;;;;;4973136;28;20030;-73
2023/01/29 00:45:14;;;;;;;14.30;9.10;;;;;;;;;;4973432;28;20041;-71
2023/01/29 00:47:40;;;;;;;15.32;9.85;;;;;;;;;;4972975;28;20023;-72
2023/01/29 00:50:08;;;;;;;19.88;8.88;;;;;;;;;;4973535;28;20038;-71
2023/01/29 00:52:35;;;;;;;14.73;8.88;;;;;;;;;;4973139;28;20069;-71
2023/01/29 00:55:02;;;;;;;17.95;9.65;;;;;;;;;;4973101;28;20031;-72
2023/01/29 00:57:28;;;;;;;13.68;8.85;;;;;;;;;;4987623;28;20122;-71
2023/01/29 00:59:54;;;;;;;13.20;8.52;;;;;;;;;;4956960;28;20023;-72
2023/01/29 01:05:12;;;;;;;14.63;8.77;;;;;;;;;;4953683;28;20553;-72
2023/01/29 01:07:38;;;;;;;15.27;8.82;;;;;;;;;;4954270;28;20047;-72
2023/01/29 01:10:20;;;;;;;12.02;8.27;;;;;;;;;;4953389;29;20058;-71
2023/01/29 01:12:50;;;;;;;12.07;8.38;;;;;;;;;;4953674;29;20043;-71
2023/01/29 01:15:17;;;;;;;13.88;9.02;;;;;;;;;;4953669;28;20465;-71
2023/01/29 01:17:43;;;;;;;14.70;8.30;;;;;;;;;;4953243;29;20058;-71
2023/01/29 01:20:09;;;;;;;14.85;8.60;;;;;;;;;;4953634;29;20533;-71
2023/01/29 01:22:36;;;;;;;13.73;8.73;;;;;;;;;;4953905;28;20050;-71
2023/01/29 01:25:02;;;;;;;17.23;10.13;;;;;;;;;;4953675;29;20038;-71
2023/01/29 01:27:28;;;;;;;14.90;10.10;;;;;;;;;;4953608;29;20039;-72
2023/01/29 01:29:54;;;;;;;14.40;8.65;;;;;;;;;;4954013;29;20042;-71
2023/01/29 01:32:20;;;;;;;13.65;8.57;;;;;;;;;;4954407;29;20398;-72
2023/01/29 01:34:46;;;;;;;13.82;9.60;;;;;;;;;;4954808;29;20031;-71
2023/01/29 01:37:12;;;;;;;16.60;9.93;;;;;;;;;;4955703;29;20024;-71
2023/01/29 01:39:38;;;;;;;13.43;9.70;;;;;;;;;;4956848;29;20038;-73
2023/01/29 01:42:05;;;;;;;12.57;8.75;;;;;;;;;;4956515;29;20027;-72
2023/01/29 01:44:50;;;;;;;12.40;8.63;;;;;;;;;;4955703;29;20126;-71
2023/01/29 01:47:17;;;;;;;15.02;9.27;;;;;;;;;;4954191;29;20035;-71
2023/01/29 01:49:44;;;;;;;17.27;9.70;;;;;;;;;;4953753;29;20046;-71
2023/01/29 01:52:10;;;;;;;14.73;9.73;;;;;;;;;;4952011;29;20031;-71
2023/01/29 01:54:36;;;;;;;17.08;10.65;;;;;;;;;;4953198;29;20031;-70
2023/01/29 01:57:08;;;;;;;15.73;10.88;;;;;;;;;;4953039;29;20097;-71
2023/01/29 01:59:35;;;;;;;22.00;11.75;;;;;;;;;;4966304;28;20381;-70
2023/01/29 02:10:18;;;;;;;17.48;11.15;;;;;;;;;;4961209;28;20066;-72
2023/01/29 02:12:44;;;;;;;15.48;10.55;;;;;;;;;;4963506;28;20058;-71
2023/01/29 02:15:11;;;;;;;15.68;10.73;;;;;;;;;;4971995;28;20114;-71
2023/01/29 02:17:37;;;;;;;15.65;10.80;;;;;;;;;;4973322;28;20031;-71
2023/01/29 02:20:30;;;;;;;17.10;11.43;;;;;;;;;;4975417;28;20046;-70
2023/01/29 02:23:32;;;;;;;17.48;11.35;;;;;;;;;;4971393;28;20446;-71
2023/01/29 02:26:10;;;;;;;17.30;10.98;;;;;;;;;;4915401;29;20540;-71
2023/01/29 02:28:53;;;;;;;16.15;11.35;;;;;;;;;;4967543;28;20110;-71
2023/01/29 02:31:38;;;;;;;18.25;12.38;;;;;;;;;;4975303;28;20029;-71
2023/01/29 02:34:27;;;;;;;18.95;12.77;;;;;;;;;;4975154;28;20066;-71
2023/01/29 02:36:59;;;;;;;16.85;11.18;;;;;;;;;;4975345;28;20031;-71
2023/01/29 02:39:45;;;;;;;21.17;13.63;;;;;;;;;;4974693;28;20269;-70
2023/01/29 02:42:26;;;;;;;19.55;12.52;;;;;;;;;;4974976;28;20121;-72
2023/01/29 02:45:13;;;;;;;15.52;10.30;;;;;;;;;;4975290;28;20030;-71
2023/01/29 02:47:42;;;;;;;20.45;13.23;;;;;;;;;;4974338;28;20035;-71
2023/01/29 02:50:14;;;;;;;22.63;13.85;;;;;;;;;;4974790;28;20031;-70
2023/01/29 02:52:55;;;;;;;22.00;13.38;;;;;;;;;;4973145;28;20034;-71
2023/01/29 02:55:21;;;;;;;;;;;;;;;;;;4975388;28;20034;-71
2023/01/29 02:57:48;;;;;;;24.27;13.25;;;;;;;;;;4974733;28;19959;-70
2023/01/29 03:00:27;;;;;;;20.55;13.38;;;;;;;;;;4975049;28;20023;-71
2023/01/29 03:02:56;;;;;;;23.50;13.85;;;;;;;;;;4975047;28;20110;-71
2023/01/29 03:05:27;;;;;;;22.02;14.27;;;;;;;;;;4975078;28;20037;-71
2023/01/29 03:07:57;;;;;;;22.67;13.63;;;;;;;;;;4973251;28;20438;-70
2023/01/29 03:10:44;;;;;;;19.90;13.98;;;;;;;;;;4975115;28;20034;-71
2023/01/29 03:13:14;;;;;;;21.55;12.82;;;;;;;;;;4975000;28;20023;-70
2023/01/29 03:15:46;;;;;;;16.83;10.97;;;;;;;;;;4974723;28;20117;-72
2023/01/29 03:18:15;;;;;;;21.17;13.63;;;;;;;;;;4975029;28;20759;-70
2023/01/29 03:20:46;;;;;;;19.92;12.88;;;;;;;;;;4973465;28;20027;-71
2023/01/29 03:34:33;;;;;;;17.15;11.32;;;;;;;;;;4972638;28;20037;-71
2023/01/29 03:37:06;;;;;;;22.70;12.02;;;;;;;;;;4973147;28;20043;-69
2023/01/29 03:39:33;;;;;;;19.45;12.13;;;;;;;;;;4975823;28;20038;-71
2023/01/29 03:42:18;;;;;;;21.52;12.85;;;;;;;;;;4982053;28;20030;-72
2023/01/29 03:44:44;;;;;;;14.77;10.63;;;;;;;;;;4988240;28;20086;-72
2023/01/29 03:47:18;;;;;;;19.70;12.30;;;;;;;;;;4983371;28;20038;-71
2023/01/29 03:50:00;;;;;;;16.92;11.25;;;;;;;;;;4976255;28;20035;-71
2023/01/29 03:52:45;;;;;;;17.92;11.48;;;;;;;;;;4974185;28;20149;-71
2023/01/29 03:55:11;;;;;;;19.90;11.73;;;;;;;;;;4974578;28;20027;-72
2023/01/29 03:57:44;;;;;;;20.02;11.55;;;;;;;;;;4973616;28;20374;-71
2023/01/29 04:00:22;;;;;;;16.95;11.30;;;;;;;;;;4974063;28;20026;-71
2023/01/29 04:02:55;;;;;;;15.10;11.05;;;;;;;;;;4973916;28;20034;-71
2023/01/29 04:05:24;;;;;;;15.68;10.63;;;;;;;;;;4973881;28;20035;-71
2023/01/29 04:07:54;;;;;;;18.17;11.02;;;;;;;;;;4973552;28;20031;-71
2023/01/29 04:10:22;;;;;;;16.65;10.90;;;;;;;;;;4973974;28;20030;-71
2023/01/29 04:12:56;;;;;;;19.50;12.60;;;;;;;;;;4973780;28;20493;-71
2023/01/29 04:15:23;;;;;;;21.05;11.68;;;;;;;;;;4973812;28;20497;-71
2023/01/29 04:17:51;;;;;;;18.40;12.20;;;;;;;;;;4973758;28;20026;-71
2023/01/29 04:20:17;;;;;;;16.88;11.77;;;;;;;;;;4973721;28;20030;-71
2023/01/29 04:22:47;;;;;;;15.40;10.57;;;;;;;;;;4973793;28;20061;-71
2023/01/29 04:25:15;;;;;;;17.13;12.38;;;;;;;;;;4988702;28;20121;-71
2023/01/29 04:28:05;;;;;;;16.73;11.48;;;;;;;;;;4987859;28;20035;-71
2023/01/29 04:30:32;;;;;;;17.85;11.27;;;;;;;;;;4973652;28;20034;-71
2023/01/29 04:33:11;;;;;;;17.10;11.82;;;;;;;;;;4973591;28;20035;-71
2023/01/29 04:35:52;;;;;;;17.35;11.95;;;;;;;;;;4973398;28;20031;-71
2023/01/29 04:38:18;;;;;;;15.23;10.82;;;;;;;;;;4973401;28;20098;-71
2023/01/29 04:40:53;;;;;;;18.00;12.10;;;;;;;;;;4972505;28;20022;-71
2023/01/29 04:43:22;;;;;;;20.75;12.02;;;;;;;;;;4973321;28;20069;-71
2023/01/29 04:46:01;;;;;;;15.95;11.73;;;;;;;;;;4973414;28;20485;-71
2023/01/29 04:48:37;;;;;;;18.15;11.27;;;;;;;;;;4972958;28;20170;-70
2023/01/29 04:51:06;;;;;;;16.40;11.05;;;;;;;;;;4973162;28;20031;-71
2023/01/29 04:53:45;;;;;;;17.77;11.93;;;;;;;;;;4973167;28;20062;-71
2023/01/29 04:56:14;;;;;;;20.52;12.45;;;;;;;;;;4973196;28;20110;-71
2023/01/29 04:58:40;;;;;;;18.08;12.52;;;;;;;;;;4966854;28;20039;-70
2023/01/29 05:01:08;;;;;;;21.40;14.52;;;;;;;;;;4953688;29;20078;-71
2023/01/29 05:03:35;;;;;;;20.70;13.50;;;;;;;;;;4954085;29;20059;-71
2023/01/29 05:06:02;;;;;;;21.60;13.18;;;;;;;;;;4953850;29;20031;-71
2023/01/29 05:08:29;;;;;;;22.13;12.93;;;;;;;;;;4953603;29;20027;-70
2023/01/29 05:10:57;;;;;;;24.13;13.90;;;;;;;;;;4953713;29;20039;-70
2023/01/29 05:13:24;;;;;;;20.98;13.85;;;;;;;;;;4953650;29;20031;-71
2023/01/29 05:15:53;;;;;;;19.63;13.25;;;;;;;;;;4953824;29;20032;-71
2023/01/29 05:18:19;;;;;;;22.75;14.63;;;;;;;;;;4952052;29;20031;-70
2023/01/29 05:20:46;;;;;;;22.70;14.18;;;;;;;;;;4953613;29;20027;-71
2023/01/29 05:23:16;;;;;;;19.67;14.23;;;;;;;;;;4953863;29;20034;-71
2023/01/29 05:25:43;;;;;;;16.17;11.25;;;;;;;;;;4953749;28;20062;-71
2023/01/29 05:28:16;;;;;;;21.98;14.18;;;;;;;;;;4953094;28;20039;-71
2023/01/29 05:30:43;;;;;;;20.30;13.65;;;;;;;;;;4953956;28;20027;-72
2023/01/29 05:33:20;;;;;;;19.90;12.63;;;;;;;;;;4953508;28;20389;-71
2023/01/29 05:35:47;;;;;;;21.40;13.80;;;;;;;;;;4953585;29;20038;-70
2023/01/29 05:38:13;;;;;;;21.25;13.60;;;;;;;;;;4953200;28;20023;-72
2023/01/29 05:40:39;;;;;;;24.98;15.02;;;;;;;;;;4953330;29;20473;-72
2023/01/29 05:43:06;;;;;;;22.17;13.57;;;;;;;;;;4953461;29;20024;-71
2023/01/29 05:45:32;;;;;;;21.08;13.10;;;;;;;;;;4953570;29;20425;-71
2023/01/29 05:47:59;;;;;;;21.08;13.45;;;;;;;;;;4953114;29;20035;-72
2023/01/29 05:50:26;;;;;;;22.98;13.45;;;;;;;;;;4953521;29;20027;-70
2023/01/29 05:52:56;;;;;;;20.95;14.07;;;;;;;;;;4955863;28;20434;-71
2023/01/29 05:55:22;;;;;;;22.15;14.20;;;;;;;;;;4956919;29;20073;-70
2023/01/29 05:57:48;;;;;;;20.60;14.80;;;;;;;;;;4956985;29;20422;-71
2023/01/29 06:00:14;;;;;;;23.35;15.43;;;;;;;;;;4974133;28;20031;-70
2023/01/29 06:02:40;;;;;;;20.98;14.00;;;;;;;;;;4976246;28;20123;-70
2023/01/29 06:05:06;;;;;;;21.27;13.52;;;;;;;;;;4976428;28;20042;-71
2023/01/29 06:07:32;;;;;;;22.20;13.85;;;;;;;;;;4975794;28;20042;-71
2023/01/29 06:09:58;;;;;;;20.98;13.80;;;;;;;;;;4990904;28;20038;-71
2023/01/29 06:12:26;;;;;;;22.60;13.90;;;;;;;;;;4976004;28;20038;-71
2023/01/29 06:14:52;;;;;;;20.08;13.10;;;;;;;;;;4975991;28;20027;-72
2023/01/29 06:17:18;;;;;;;20.42;13.95;;;;;;;;;;4975646;28;20033;-71
2023/01/29 06:19:44;;;;;;;20.95;13.75;;;;;;;;;;4975934;28;20023;-70
2023/01/29 06:22:10;;;;;;;21.08;13.95;;;;;;;;;;4975843;28;20030;-70
2023/01/29 06:24:36;;;;;;;19.65;13.48;;;;;;;;;;4976220;28;20041;-70
2023/01/29 06:27:02;;;;;;;23.55;13.73;;;;;;;;;;4977317;28;20058;-70
2023/01/29 06:29:28;;;;;;;24.15;13.90;;;;;;;;;;4991521;28;20031;-72
2023/01/29 06:31:54;;;;;;;22.00;14.20;;;;;;;;;;4992191;28;20493;-71
2023/01/29 06:34:20;;;;;;;23.35;14.20;;;;;;;;;;4976221;28;20081;-71
2023/01/29 06:36:46;;;;;;;20.10;12.98;;;;;;;;;;4975354;28;20026;-71
2023/01/29 06:39:12;;;;;;;18.48;13.52;;;;;;;;;;4975221;28;20023;-71
2023/01/29 06:41:38;;;;;;;20.85;13.57;;;;;;;;;;4990627;28;20033;-70
2023/01/29 06:44:04;;;;;;;21.20;13.30;;;;;;;;;;4975814;28;20085;-71
2023/01/29 06:46:30;;;;;;;18.23;12.27;;;;;;;;;;4975503;28;20038;-71
2023/01/29 06:48:59;;;;;;;18.38;12.52;;;;;;;;;;4975078;28;20030;-71
2023/01/29 06:51:25;;;;;;;19.50;13.35;;;;;;;;;;4975402;28;20264;-71
2023/01/29 06:53:53;;;;;;;19.08;13.18;;;;;;;;;;4975576;28;20055;-71
2023/01/29 06:56:19;;;;;;;21.40;12.27;;;;;;;;;;4975236;28;20031;-70
2023/01/29 06:58:45;;;;;;;17.08;12.15;;;;;;;;;;4968593;28;20062;-71
2023/01/29 07:01:12;;;;;;;18.00;12.75;;;;;;;;;;4956056;29;20031;-72
2023/01/29 07:03:40;;;;;;;19.58;12.38;;;;;;;;;;4954949;28;20546;-71
2023/01/29 07:06:07;;;;;;;17.42;11.30;;;;;;;;;;4955855;28;20039;-72
2023/01/29 07:08:35;;;;;;;16.77;12.48;;;;;;;;;;4955589;28;20562;-72
2023/01/29 07:11:02;;;;;;;15.38;11.52;;;;;;;;;;4955851;29;20027;-72
2023/01/29 07:13:28;;;;;;;20.05;11.65;;;;;;;;;;4955444;29;20493;-72
2023/01/29 07:15:54;;;;;;;14.77;11.00;;;;;;;;;;4955587;29;20038;-72
2023/01/29 07:18:20;;;;;;;16.63;11.55;;;;;;;;;;4955130;29;20047;-72
2023/01/29 07:20:46;;;;;;;15.68;11.63;;;;;;;;;;4955431;29;20509;-72
2023/01/29 07:23:13;;;;;;;14.70;11.43;;;;;;;;;;4955327;29;20034;-72
2023/01/29 07:25:39;;;;;;;16.00;10.82;;;;;;;;;;4954124;29;20516;-71
2023/01/29 07:28:05;;;;;;;16.10;12.38;;;;;;;;;;4954936;29;20456;-72
2023/01/29 07:30:32;;;;;;;16.75;11.35;;;;;;;;;;4955399;29;20486;-72
2023/01/29 07:33:05;;;;;;;15.15;11.25;;;;;;;;;;4955432;29;20154;-72
2023/01/29 07:35:31;;;;;;;18.27;11.50;;;;;;;;;;4955332;29;20098;-72
2023/01/29 07:37:57;;;;;;;17.55;11.40;;;;;;;;;;4955166;29;20154;-71
2023/01/29 07:40:23;;;;;;;16.52;11.95;;;;;;;;;;4954136;29;20019;-72
2023/01/29 07:42:49;;;;;;;16.52;11.95;;;;;;;;;;4954287;29;20078;-73
2023/01/29 07:45:15;;;;;;;16.67;11.23;;;;;;;;;;4955227;29;20118;-73
2023/01/29 07:47:41;;;;;;;15.32;10.60;;;;;;;;;;4954674;29;20106;-72
2023/01/29 07:50:08;;;;;;;17.23;11.73;;;;;;;;;;4955192;29;20039;-72
2023/01/29 07:52:34;;;;;;;17.05;10.93;;;;;;;;;;4955163;29;20035;-72
2023/01/29 07:55:00;;;;;;;16.23;11.10;;;;;;;;;;4954946;28;20509;-72
2023/01/29 07:57:26;;;;;;;16.58;10.63;;;;;;;;;;4954872;29;20033;-71
2023/01/29 07:59:52;;;;;;;14.43;11.05;;;;;;;;;;4970314;28;20469;-71
2023/01/29 08:02:18;;;;;;;16.30;11.38;;;;;;;;;;4974314;28;20027;-72
2023/01/29 08:04:44;;;;;;;18.27;11.13;;;;;;;;;;4974343;28;20081;-73
2023/01/29 08:07:10;;;;;;;16.40;10.38;;;;;;;;;;4973771;28;20030;-71
2023/01/29 08:09:36;;;;;;;16.10;9.90;;;;;;;;;;4974510;28;20038;-71
2023/01/29 08:12:02;;;;;;;18.40;10.23;;;;;;;;;;4974187;28;20047;-72
2023/01/29 08:14:31;;;;;;;12.27;10.13;;;;;;;;;;4973692;28;20456;-73
2023/01/29 08:16:57;;;;;;;12.95;9.68;;;;;;;;;;4973625;28;20458;-71
2023/01/29 08:19:23;;;;;;;18.48;9.90;;;;;;;;;;4973638;28;20055;-71
2023/01/29 08:21:49;;;;;;;12.43;9.30;;;;;;;;;;4973701;28;20027;-71
2023/01/29 08:24:15;;;;;;;15.20;9.52;;;;;;;;;;4973791;28;20034;-72
2023/01/29 08:26:41;;;;;;;11.65;9.30;;;;;;;;;;4973250;28;20026;-71
2023/01/29 08:29:07;;;;;;;13.75;10.20;;;;;;;;;;4973941;28;20061;-71
2023/01/29 08:31:34;;;;;;;13.27;8.63;;;;;;;;;;4973476;28;20030;-71
2023/01/29 08:33:59;;;;;;;12.00;9.00;;;;;;;;;;4973721;28;20033;-71
2023/01/29 08:36:25;;;;;;;12.77;8.88;;;;;;;;;;4974279;28;20030;-71
2023/01/29 08:38:51;;;;;;;15.02;9.23;;;;;;;;;;4974218;28;20030;-68
2023/01/29 08:41:17;;;;;;;12.68;9.88;;;;;;;;;;4977435;28;20023;-72
2023/01/29 08:43:45;;;;;;;12.48;10.40;;;;;;;;;;4983032;28;20030;-72
2023/01/29 08:46:11;;;;;;;13.40;9.70;;;;;;;;;;4985682;28;20050;-73
2023/01/29 08:48:37;;;;;;;15.35;11.40;;;;;;;;;;4985031;28;20034;-73
2023/01/29 08:51:03;;;;;;;13.00;9.57;;;;;;;;;;4979698;28;20035;-73
2023/01/29 08:53:30;;;;;;;17.23;11.23;;;;;;;;;;4975618;28;20050;-72
2023/01/29 08:55:56;;;;;;;17.63;10.43;;;;;;;;;;4975467;28;20154;-74
2023/01/29 08:58:22;;;;;;;15.57;11.10;;;;;;;;;;4969527;28;20023;-72
2023/01/29 09:00:48;;;;;;;15.23;11.30;;;;;;;;;;4953752;29;20099;-70
2023/01/29 09:03:14;;;;;;;13.80;9.80;;;;;;;;;;4953774;29;20502;-71
2023/01/29 09:05:40;;;;;;;18.08;11.27;;;;;;;;;;4952462;29;20148;-72
2023/01/29 09:08:07;;;;;;;15.85;9.48;;;;;;;;;;4960307;28;20041;-71
2023/01/29 09:10:33;;;;;;;14.75;10.80;;;;;;;;;;4960933;28;20490;-71
2023/01/29 09:12:59;;;;;;;22.55;11.82;;;;;;;;;;4953264;29;20050;-70
2023/01/29 09:15:25;;;;;;;15.70;11.05;;;;;;;;;;4953834;29;20445;-67
2023/01/29 09:17:51;;;;;;;13.63;10.40;;;;;;;;;;4953182;29;20024;-72
2023/01/29 09:20:18;;;;;;;13.23;9.85;;;;;;;;;;4953570;29;20033;-71
2023/01/29 09:22:45;;;;;;;14.70;10.27;;;;;;;;;;4953625;29;20111;-70
2023/01/29 09:25:11;;;;;;;13.63;10.43;;;;;;;;;;4953714;29;20031;-67
2023/01/29 09:27:37;;;;;;;14.25;9.68;;;;;;;;;;4955336;28;20509;-69
2023/01/29 09:30:04;;;;;;;16.40;10.60;;;;;;;;;;4957560;29;20061;-71
2023/01/29 09:32:30;;;;;;;13.93;10.70;;;;;;;;;;4957171;29;20027;-71
2023/01/29 09:34:56;;;;;;;15.45;11.40;;;;;;;;;;4957092;29;20042;-71
2023/01/29 09:37:22;;;;;;;17.05;11.57;;;;;;;;;;4956989;29;20486;-71
2023/01/29 09:39:49;;;;;;;15.43;10.88;;;;;;;;;;4957240;29;20355;-72
2023/01/29 09:42:24;;;;;;;15.63;10.65;;;;;;;;;;4957001;29;20505;-71
2023/01/29 09:44:53;;;;;;;18.35;10.32;;;;;;;;;;4955871;29;20031;-70
2023/01/29 09:47:19;;;;;;;16.60;11.32;;;;;;;;;;4956910;29;20106;-72
2023/01/29 09:49:47;;;;;;;14.50;10.68;;;;;;;;;;4957280;29;20031;-70
2023/01/29 09:52:18;;;;;;;16.52;11.35;;;;;;;;;;4955590;29;20110;-71
2023/01/29 09:54:54;;;;;;;21.50;12.15;;;;;;;;;;4955543;29;20497;-71
2023/01/29 09:57:31;;;;;;;17.98;11.45;;;;;;;;;;4956865;28;20032;-71
2023/01/29 09:59:57;;;;;;;12.52;10.10;;;;;;;;;;4973234;28;20027;-72
2023/01/29 10:02:42;;;;;;;21.48;11.05;;;;;;;;;;4976250;28;20035;-72
2023/01/29 10:05:14;;;;;;;14.68;10.90;;;;;;;;;;4975979;28;20038;-71
2023/01/29 10:07:59;;;;;;;18.40;11.35;;;;;;;;;;4975767;28;20047;-71
2023/01/29 10:10:34;;;;;;;13.98;10.30;;;;;;;;;;4975927;28;20031;-72
2023/01/29 10:13:02;;;;;;;16.88;10.73;;;;;;;;;;4975825;28;20110;-72
2023/01/29 10:15:31;;;;;;;18.67;9.88;;;;;;;;;;4975783;28;20066;-71
2023/01/29 10:17:57;;;;;;;14.60;9.57;;;;;;;;;;4975557;28;20114;-73
2023/01/29 10:20:30;;;;;;;17.02;11.35;;;;;;;;;;4976087;28;20046;-73
2023/01/29 10:22:56;;;;;;;14.88;10.18;;;;;;;;;;4975541;28;20102;-72
2023/01/29 10:25:22;;;;;;;14.00;10.32;;;;;;;;;;4975667;28;20069;-72
2023/01/29 10:27:52;;;;;;;12.82;10.00;;;;;;;;;;4975591;28;20049;-72
2023/01/29 10:30:21;;;;;;;15.57;11.30;;;;;;;;;;4975580;28;20019;-71
2023/01/29 10:32:48;;;;;;;16.05;10.25;;;;;;;;;;4975668;28;20397;-71
2023/01/29 10:35:22;;;;;;;16.30;10.48;;;;;;;;;;4975864;28;20031;-72
2023/01/29 10:37:51;;;;;;;13.65;10.73;;;;;;;;;;4975184;28;20437;-70
2023/01/29 10:40:37;;;;;;;15.20;11.60;;;;;;;;;;4975471;28;20158;-72
2023/01/29 10:43:03;;;;;;;17.90;10.45;;;;;;;;;;4975529;28;20496;-71
2023/01/29 10:45:34;;;;;;;14.20;10.63;;;;;;;;;;4975341;28;20023;-70
2023/01/29 10:48:04;;;;;;;15.60;10.27;;;;;;;;;;4975211;28;20034;-72
2023/01/29 10:50:34;;;;;;;18.85;11.13;;;;;;;;;;4975365;28;20319;-71
2023/01/29 10:53:32;;;;;;;13.75;10.05;;;;;;;;;;4975155;28;20178;-71
2023/01/29 10:56:17;;;;;;;16.63;10.93;;;;;;;;;;4952844;28;20516;-72
2023/01/29 10:58:45;;;;;;;18.58;11.45;;;;;;;;;;4968072;28;20042;-72
2023/01/29 11:01:12;;;;;;;14.65;10.18;;;;;;;;;;4955701;29;20043;-73
2023/01/29 11:03:38;;;;;;;14.90;10.35;;;;;;;;;;4954436;29;20062;-72
2023/01/29 11:06:04;;;;;;;13.13;10.10;;;;;;;;;;4955623;29;20520;-72
2023/01/29 11:08:37;;;;;;;15.70;10.40;;;;;;;;;;4955278;29;20046;-70
2023/01/29 11:11:12;;;;;;;13.75;10.73;;;;;;;;;;4955772;29;20497;-72
2023/01/29 11:13:45;;;;;;;15.88;10.98;;;;;;;;;;4970613;28;20019;-72
2023/01/29 11:16:11;;;;;;;17.05;11.13;;;;;;;;;;4973012;28;20071;-72
2023/01/29 11:18:54;;;;;;;17.33;9.63;;;;;;;;;;4971916;28;20137;-73
2023/01/29 11:21:20;;;;;;;15.88;11.00;;;;;;;;;;4974887;28;20030;-72
2023/01/29 11:23:46;;;;;;;14.68;10.95;;;;;;;;;;4973484;28;20030;-73
2023/01/29 11:26:13;;;;;;;15.95;10.70;;;;;;;;;;4974774;28;20081;-72
2023/01/29 11:28:42;;;;;;;14.10;11.45;;;;;;;;;;4974351;28;20046;-73
2023/01/29 11:31:29;;;;;;;14.93;10.95;;;;;;;;;;4974451;28;20109;-74
2023/01/29 11:34:02;;;;;;;14.38;9.90;;;;;;;;;;4974676;28;20375;-74
2023/01/29 11:36:35;;;;;;;18.13;12.48;;;;;;;;;;4974273;28;20065;-74
2023/01/29 11:39:09;;;;;;;16.33;11.55;;;;;;;;;;4974442;28;20015;-74
2023/01/29 11:41:47;;;;;;;19.70;11.00;;;;;;;;;;4974987;28;20059;-73
2023/01/29 11:44:20;;;;;;;14.80;11.35;;;;;;;;;;4974986;28;20027;-72
2023/01/29 11:46:46;;;;;;;15.00;10.68;;;;;;;;;;4974029;28;20512;-76
2023/01/29 11:49:22;;;;;;;13.23;10.80;;;;;;;;;;4972542;28;20440;-75
2023/01/29 11:51:54;;;;;;;15.45;10.80;;;;;;;;;;4974243;28;20516;-73
2023/01/29 11:54:24;;;;;;;13.88;10.70;;;;;;;;;;4974410;28;20474;-76
2023/01/29 11:56:50;;;;;;;14.90;10.70;;;;;;;;;;4974792;28;20018;-75
2023/01/29 11:59:36;;;;;;;14.18;10.82;;;;;;;;;;4974305;28;20085;-75
2023/01/29 12:02:17;;;;;;;15.07;11.45;;;;;;;;;;4974094;28;20026;-74
2023/01/29 12:04:43;;;;;;;;;;;;;;;;;;4974702;28;20023;-74
2023/01/29 12:07:13;;;;;;;20.65;11.45;;;;;;;;;;4973690;28;19906;-74
2023/01/29 12:09:40;;;;;;;15.48;11.25;;;;;;;;;;4973745;28;20093;-74
2023/01/29 12:12:39;;;;;;;15.13;11.50;;;;;;;;;;4973605;28;20103;-71
2023/01/29 12:15:25;;;;;;;15.43;11.00;;;;;;;;;;4951038;28;20030;-72
2023/01/29 12:18:14;;;;;;;15.18;10.63;;;;;;;;;;4973306;28;20079;-74
2023/01/29 12:20:54;;;;;;;19.85;11.00;;;;;;;;;;4954718;28;20393;-74
2023/01/29 12:23:21;;;;;;;16.30;10.82;;;;;;;;;;4988457;28;20026;-73
2023/01/29 12:25:53;;;;;;;13.75;10.65;;;;;;;;;;4973501;28;20113;-73
2023/01/29 12:28:19;;;;;;;12.82;9.73;;;;;;;;;;4974176;28;20035;-75
2023/01/29 12:30:45;;;;;;;13.88;10.77;;;;;;;;;;4973661;28;20188;-73
2023/01/29 12:33:19;;;;;;;18.30;10.60;;;;;;;;;;4973344;28;20401;-72
2023/01/29 12:35:53;;;;;;;13.70;10.13;;;;;;;;;;4973530;28;20030;-72
2023/01/29 12:38:20;;;;;;;20.67;10.25;;;;;;;;;;4973166;28;20457;-73
2023/01/29 12:40:46;;;;;;;17.67;10.38;;;;;;;;;;4973297;28;20409;-74
2023/01/29 12:43:16;;;;;;;20.08;11.48;;;;;;;;;;4973188;28;20018;-73
2023/01/29 12:45:44;;;;;;;16.45;10.10;;;;;;;;;;4973121;28;20547;-73
2023/01/29 12:48:13;;;;;;;14.88;10.20;;;;;;;;;;4972720;28;20035;-73
2023/01/29 12:50:39;;;;;;;12.10;8.55;;;;;;;;;;4973088;28;20029;-73
2023/01/29 12:53:05;;;;;;;15.23;10.90;;;;;;;;;;4972986;28;20243;-74
2023/01/29 12:55:52;;;;;;;13.30;9.57;;;;;;;;;;4972903;28;20031;-72
2023/01/29 12:58:23;;;;;;;16.33;10.13;;;;;;;;;;4972754;28;20023;-73
2023/01/29 13:00:51;;;;;;;14.35;10.90;;;;;;;;;;4972599;28;20027;-75
2023/01/29 13:03:20;;;;;;;11.27;9.10;;;;;;;;;;4972587;28;20031;-73
2023/01/29 13:05:49;;;;;;;15.73;10.57;;;;;;;;;;4987707;28;20073;-75
2023/01/29 13:08:25;;;;;;;13.23;9.02;;;;;;;;;;4972256;28;20027;-76
2023/01/29 13:10:52;;;;;;;12.05;9.43;;;;;;;;;;4972993;28;20035;-76
2023/01/29 13:13:26;;;;;;;14.02;9.68;;;;;;;;;;4987924;28;20037;-74
2023/01/29 13:15:53;;;;;;;15.30;10.02;;;;;;;;;;4987700;28;20448;-77
2023/01/29 13:18:38;;;;;;;13.32;9.63;;;;;;;;;;4972806;28;20093;-76
2023/01/29 13:21:05;;;;;;;18.25;10.63;;;;;;;;;;4973333;28;20113;-76
2023/01/29 13:23:36;;;;;;;12.30;9.55;;;;;;;;;;4965857;28;20035;-75
2023/01/29 13:26:04;;;;;;;16.25;11.18;;;;;;;;;;4972882;28;20026;-75
2023/01/29 13:28:30;;;;;;;15.80;10.52;;;;;;;;;;4954868;28;20031;-73
2023/01/29 13:31:32;;;;;;;14.32;9.23;;;;;;;;;;4956152;28;20122;-74
2023/01/29 13:34:14;;;;;;;12.55;10.05;;;;;;;;;;4949392;28;20031;-75
2023/01/29 13:36:44;;;;;;;14.57;9.93;;;;;;;;;;4959257;28;20228;-74
2023/01/29 13:39:16;;;;;;;15.02;10.07;;;;;;;;;;4971441;28;20029;-76
2023/01/29 13:41:43;;;;;;;13.68;10.13;;;;;;;;;;4972727;28;20054;-74
2023/01/29 13:44:19;;;;;;;19.75;10.18;;;;;;;;;;4973004;28;20026;-74
2023/01/29 13:46:51;;;;;;;17.17;10.75;;;;;;;;;;4980142;28;20019;-75
2023/01/29 13:49:24;;;;;;;18.48;11.27;;;;;;;;;;4997240;28;20038;-75
2023/01/29 13:51:50;;;;;;;13.95;9.85;;;;;;;;;;5006145;28;20026;-74
2023/01/29 13:54:19;;;;;;;16.33;9.75;;;;;;;;;;5018477;28;20030;-75
2023/01/29 13:56:58;;;;;;;15.68;11.25;;;;;;;;;;4991947;28;20033;-74
2023/01/29 13:59:43;;;;;;;14.52;10.57;;;;;;;;;;4980099;28;20085;-75
2023/01/29 14:02:20;;;;;;;19.55;11.25;;;;;;;;;;4972374;28;20026;-75
2023/01/29 14:04:46;;;;;;;17.33;10.43;;;;;;;;;;4987247;28;20038;-74
2023/01/29 14:07:31;;;;;;;16.85;10.80;;;;;;;;;;4983855;28;20530;-75
2023/01/29 14:10:14;;;;;;;12.57;9.80;;;;;;;;;;4953175;29;20114;-75
2023/01/29 14:12:41;;;;;;;14.68;9.93;;;;;;;;;;4953665;28;20627;-76
2023/01/29 14:15:18;;;;;;;17.55;10.32;;;;;;;;;;4956751;28;20024;-74
2023/01/29 14:17:54;;;;;;;14.43;10.38;;;;;;;;;;4956273;28;20027;-75
2023/01/29 14:20:23;;;;;;;18.85;10.93;;;;;;;;;;4956785;28;20035;-75
2023/01/29 14:22:56;;;;;;;27.33;11.63;;;;;;;;;;4956401;28;20478;-75
2023/01/29 14:25:27;;;;;;;14.57;9.85;;;;;;;;;;4956396;28;20578;-75
2023/01/29 14:27:53;;;;;;;;;;;;;;;;;;4956377;29;20498;-75
2023/01/29 14:30:21;;;;;;;15.73;9.45;;;;;;;;;;4956458;29;19906;-73
2023/01/29 14:32:47;;;;;;;26.15;11.15;;;;;;;;;;4956688;28;20062;-75
2023/01/29 14:35:21;;;;;;;16.63;10.13;;;;;;;;;;4956186;28;20478;-74
2023/01/29 14:37:49;;;;;;;18.55;9.50;;;;;;;;;;4957065;29;20035;-74
2023/01/29 14:40:25;;;;;;;12.00;8.82;;;;;;;;;;4962182;28;20050;-74
2023/01/29 14:43:00;;;;;;;13.23;8.98;;;;;;;;;;4975800;28;20081;-73
2023/01/29 14:45:44;;;;;;;13.73;9.80;;;;;;;;;;4975567;28;20048;-75
2023/01/29 14:48:10;;;;;;;12.68;9.07;;;;;;;;;;4975081;28;20044;-73
2023/01/29 14:50:36;;;;;;;15.93;9.63;;;;;;;;;;4975170;28;20030;-75
2023/01/29 14:53:28;;;;;;;14.82;10.02;;;;;;;;;;4975425;28;20034;-74
2023/01/29 14:56:02;;;;;;;17.52;10.35;;;;;;;;;;4972458;28;20035;-75
2023/01/29 14:58:37;;;;;;;15.93;10.88;;;;;;;;;;4974712;28;20078;-74
2023/01/29 15:01:06;;;;;;;17.33;10.23;;;;;;;;;;4975368;28;20106;-74
2023/01/29 15:03:41;;;;;;;15.27;9.98;;;;;;;;;;4975110;28;20022;-74